createdAt,value
2023-02-19T00:01:12.723Z,26.58
2023-02-19T00:03:39.458Z,25.48
2023-02-19T00:06:06.768Z,24.10
2023-02-19T00:08:33.612Z,24.48
2023-02-19T00:11:04.158Z,16.15
2023-02-19T00:13:30.945Z,20.45
2023-02-19T00:15:57.688Z,21.50
2023-02-19T00:18:24.152Z,20.13
2023-02-19T00:20:50.472Z,14.48
2023-02-19T00:23:16.944Z,21.48
2023-02-19T00:25:43.354Z,13.52
2023-02-19T00:28:09.664Z,10.60
2023-02-19T00:30:35.999Z,13.68
2023-02-19T00:33:02.258Z,19.70
2023-02-19T00:35:28.760Z,19.80
2023-02-19T00:37:55.078Z,18.48
2023-02-19T00:40:22.698Z,12.38
2023-02-19T00:42:49.105Z,21.70
2023-02-19T00:45:15.438Z,17.02
2023-02-19T00:47:41.939Z,17.35
2023-02-19T00:50:08.421Z,17.20
2023-02-19T00:52:34.853Z,11.63
2023-02-19T00:55:01.141Z,15.32
2023-02-19T00:57:27.734Z,23.60
2023-02-19T00:59:54.060Z,13.80
2023-02-19T01:02:20.398Z,14.63
2023-02-19T01:04:46.771Z,16.48
2023-02-19T01:07:13.185Z,13.55
2023-02-19T01:09:39.651Z,12.82
2023-02-19T01:12:06.487Z,17.95
2023-02-19T01:14:33.632Z,20.85
2023-02-19T01:16:59.872Z,15.05
2023-02-19T01:19:26.342Z,23.65
2023-02-19T01:21:52.613Z,16.67
2023-02-19T01:24:18.876Z,18.02
2023-02-19T01:26:45.194Z,16.60
2023-02-19T01:29:11.515Z,17.40
2023-02-19T01:31:39.159Z,21.75
2023-02-19T01:34:06.363Z,18.35
2023-02-19T01:36:33.377Z,23.85
2023-02-19T01:39:00.085Z,25.13
2023-02-19T01:41:26.677Z,15.20
2023-02-19T01:43:55.786Z,21.95
2023-02-19T01:46:24.680Z,17.00
2023-02-19T01:48:51.202Z,14.98
2023-02-19T01:51:18.424Z,21.80
2023-02-19T01:53:51.401Z,18.55
2023-02-19T01:56:19.154Z,18.02
2023-02-19T01:58:46.037Z,18.05
2023-02-19T02:01:12.887Z,15.82
2023-02-19T02:03:41.341Z,20.05
2023-02-19T02:06:17.465Z,17.75
2023-02-19T02:09:02.598Z,22.20
2023-02-19T02:11:29.298Z,20.95
2023-02-19T02:13:56.076Z,16.70
2023-02-19T02:16:34.656Z,22.10
2023-02-19T02:19:01.021Z,21.05
2023-02-19T02:21:46.264Z,19.95
2023-02-19T02:24:31.451Z,19.85
2023-02-19T02:27:12.301Z,19.13
2023-02-19T02:29:44.789Z,14.68
2023-02-19T02:32:12.808Z,19.50
2023-02-19T02:34:48.137Z,19.13
2023-02-19T02:37:15.076Z,16.50
2023-02-19T02:39:41.901Z,15.95
2023-02-19T02:42:26.997Z,19.65
2023-02-19T02:45:12.264Z,15.77
2023-02-19T02:47:52.772Z,16.15
2023-02-19T02:50:25.025Z,18.05
2023-02-19T02:53:13.543Z,15.35
2023-02-19T02:55:41.790Z,10.55
2023-02-19T02:58:08.653Z,8.98
2023-02-19T03:00:54.305Z,16.30
2023-02-19T03:03:22.623Z,11.48
2023-02-19T03:05:52.662Z,13.18
2023-02-19T03:08:30.469Z,13.88
2023-02-19T03:10:59.528Z,9.77
2023-02-19T03:13:46.944Z,16.20
2023-02-19T03:16:40.566Z,11.32
2023-02-19T03:19:20.973Z,15.80
2023-02-19T03:21:50.949Z,17.67
2023-02-19T03:24:37.169Z,12.30
2023-02-19T03:27:04.036Z,14.15
2023-02-19T03:29:32.720Z,13.68
2023-02-19T03:32:02.239Z,14.65
2023-02-19T03:34:36.567Z,12.13
2023-02-19T03:37:11.114Z,22.90
2023-02-19T03:39:44.349Z,12.60
2023-02-19T03:42:29.255Z,12.02
2023-02-19T03:45:14.313Z,13.10
2023-02-19T03:47:48.994Z,16.43
2023-02-19T03:50:20.037Z,16.37
2023-02-19T03:53:01.492Z,18.40
2023-02-19T03:55:32.159Z,15.95
2023-02-19T03:58:03.401Z,15.95
2023-02-19T04:00:38.665Z,10.77
2023-02-19T04:03:11.568Z,13.27
2023-02-19T04:05:41.442Z,10.93
2023-02-19T04:08:13.417Z,13.20
2023-02-19T04:10:40.391Z,18.42
2023-02-19T04:13:09.146Z,15.60
2023-02-19T04:15:36.404Z,16.25
2023-02-19T04:18:07.688Z,16.08
2023-02-19T04:20:39.952Z,10.65
2023-02-19T04:23:06.790Z,10.38
2023-02-19T04:25:34.377Z,10.57
2023-02-19T04:28:01.302Z,9.40
2023-02-19T04:30:28.042Z,15.70
2023-02-19T04:32:54.404Z,11.57
2023-02-19T04:35:20.701Z,12.35
2023-02-19T04:37:47.007Z,17.02
2023-02-19T04:40:13.340Z,12.40
2023-02-19T04:42:39.654Z,15.57
2023-02-19T04:45:06.245Z,12.68
2023-02-19T04:47:33.214Z,15.45
2023-02-19T04:49:59.631Z,9.82
2023-02-19T04:52:25.995Z,15.50
2023-02-19T04:54:52.328Z,22.13
2023-02-19T04:57:18.759Z,19.83
2023-02-19T04:59:46.072Z,12.90
2023-02-19T05:02:12.435Z,15.25
2023-02-19T05:04:38.844Z,10.48
2023-02-19T05:07:05.312Z,11.57
2023-02-19T05:09:31.589Z,13.00
2023-02-19T05:11:58.108Z,11.35
2023-02-19T05:14:24.476Z,15.38
2023-02-19T05:16:50.769Z,13.65
2023-02-19T05:19:17.084Z,17.52
2023-02-19T05:21:43.395Z,10.65
2023-02-19T05:24:09.785Z,13.55
2023-02-19T05:26:36.173Z,15.32
2023-02-19T05:29:03.130Z,17.50
2023-02-19T05:31:29.553Z,17.38
2023-02-19T05:33:56.282Z,16.52
2023-02-19T05:36:23.350Z,15.77
2023-02-19T05:38:54.086Z,12.35
2023-02-19T05:41:21.992Z,10.25
2023-02-19T05:43:49.076Z,11.40
2023-02-19T05:46:17.407Z,12.65
2023-02-19T05:48:43.789Z,13.25
2023-02-19T05:51:11.911Z,14.65
2023-02-19T05:53:38.903Z,13.73
2023-02-19T05:56:05.618Z,16.75
2023-02-19T05:58:32.187Z,11.77
2023-02-19T06:00:58.648Z,9.20
2023-02-19T06:03:24.996Z,22.08
2023-02-19T06:05:51.381Z,16.42
2023-02-19T06:08:17.642Z,17.58
2023-02-19T06:10:43.963Z,9.82
2023-02-19T06:13:11.005Z,16.65
2023-02-19T06:15:37.560Z,12.35
2023-02-19T06:18:04.146Z,10.80
2023-02-19T06:20:30.521Z,14.02
2023-02-19T06:22:56.843Z,13.40
2023-02-19T06:25:23.251Z,16.63
2023-02-19T06:27:49.480Z,16.13
2023-02-19T06:30:15.837Z,18.00
2023-02-19T06:32:42.243Z,20.23
2023-02-19T06:35:08.543Z,15.93
2023-02-19T06:37:34.856Z,10.50
2023-02-19T06:40:01.246Z,14.90
2023-02-19T06:42:28.138Z,16.98
2023-02-19T06:44:54.446Z,23.52
2023-02-19T06:47:21.666Z,15.60
2023-02-19T06:49:49.189Z,17.95
2023-02-19T06:52:15.497Z,22.83
2023-02-19T06:54:41.805Z,17.67
2023-02-19T06:57:08.169Z,16.70
2023-02-19T06:59:34.453Z,13.73
2023-02-19T07:02:00.926Z,22.67
2023-02-19T07:04:27.247Z,16.58
2023-02-19T07:06:53.721Z,19.40
2023-02-19T07:09:20.155Z,19.92
2023-02-19T07:11:46.489Z,18.35
2023-02-19T07:14:16.455Z,20.15
2023-02-19T07:16:43.970Z,15.98
2023-02-19T07:19:10.701Z,19.83
2023-02-19T07:21:37.869Z,25.75
2023-02-19T07:24:05.349Z,25.55
2023-02-19T07:26:32.207Z,23.48
2023-02-19T07:28:58.549Z,22.17
2023-02-19T07:31:25.046Z,16.30
2023-02-19T07:33:51.534Z,19.88
2023-02-19T07:36:18.637Z,16.75
2023-02-19T07:38:45.448Z,27.35
2023-02-19T07:41:12.557Z,26.17
2023-02-19T07:43:39.309Z,22.73
2023-02-19T07:46:06.955Z,21.35
2023-02-19T07:48:34.607Z,20.60
2023-02-19T07:51:02.164Z,18.73
2023-02-19T07:53:28.694Z,18.08
2023-02-19T07:55:58.924Z,33.90
2023-02-19T07:58:25.359Z,17.83
2023-02-19T08:00:51.704Z,27.45
2023-02-19T08:03:18.055Z,26.60
2023-02-19T08:05:44.929Z,20.50
2023-02-19T08:08:12.622Z,25.10
2023-02-19T08:10:58.006Z,30.23
2023-02-19T08:13:28.204Z,29.92
2023-02-19T08:16:01.714Z,22.85
2023-02-19T08:18:33.907Z,28.50
2023-02-19T08:21:00.459Z,30.15
2023-02-19T08:23:28.201Z,31.70
2023-02-19T08:25:57.161Z,28.58
2023-02-19T08:28:23.489Z,28.17
2023-02-19T08:30:50.274Z,31.67
2023-02-19T08:33:17.630Z,26.85
2023-02-19T08:35:44.036Z,20.65
2023-02-19T08:38:11.373Z,23.88
2023-02-19T08:40:38.258Z,24.17
2023-02-19T08:43:08.602Z,18.55
2023-02-19T08:45:37.002Z,21.40
2023-02-19T08:48:03.534Z,28.45
2023-02-19T08:50:29.957Z,20.50
2023-02-19T08:52:56.378Z,21.48
2023-02-19T08:55:22.726Z,26.00
2023-02-19T08:57:50.615Z,20.63
2023-02-19T09:00:17.855Z,23.33
2023-02-19T09:02:44.142Z,22.58
2023-02-19T09:05:13.620Z,20.83
2023-02-19T09:07:40.375Z,24.63
2023-02-19T09:10:07.227Z,27.40
2023-02-19T09:12:33.689Z,29.25
2023-02-19T09:15:00.387Z,26.98
2023-02-19T09:17:26.966Z,23.17
2023-02-19T09:19:53.257Z,27.80
2023-02-19T09:22:19.664Z,28.13
2023-02-19T09:24:46.029Z,24.67
2023-02-19T09:27:16.857Z,24.90
2023-02-19T09:29:43.228Z,24.70
2023-02-19T09:32:09.861Z,33.40
2023-02-19T09:34:36.426Z,23.70
2023-02-19T09:37:02.750Z,24.60
2023-02-19T09:39:29.540Z,20.85
2023-02-19T09:41:58.099Z,20.60
2023-02-19T09:44:28.020Z,22.80
2023-02-19T09:46:54.675Z,20.77
2023-02-19T09:49:29.294Z,24.42
2023-02-19T09:51:58.195Z,18.87
2023-02-19T09:54:25.666Z,13.93
2023-02-19T09:56:54.339Z,13.05
2023-02-19T09:59:22.827Z,3.35
2023-02-19T10:01:52.284Z,1.38
2023-02-19T10:04:18.615Z,5.43
2023-02-19T10:06:45.090Z,3.25
2023-02-19T10:09:11.388Z,2.20
2023-02-19T10:11:37.790Z,5.03
2023-02-19T10:14:05.355Z,5.25
2023-02-19T10:16:32.257Z,2.38
2023-02-19T10:18:58.629Z,2.60
2023-02-19T10:21:25.899Z,5.40
2023-02-19T10:23:54.471Z,4.00
2023-02-19T10:26:21.813Z,2.85
2023-02-19T10:28:48.658Z,2.80
2023-02-19T10:31:20.817Z,2.92
2023-02-19T10:33:51.513Z,3.33
2023-02-19T10:36:34.248Z,5.32
2023-02-19T10:39:01.614Z,3.47
2023-02-19T10:41:28.792Z,3.50
2023-02-19T10:44:03.766Z,5.10
2023-02-19T10:46:32.447Z,4.50
2023-02-19T10:49:00.849Z,3.03
2023-02-19T10:51:38.053Z,3.17
2023-02-19T10:54:04.421Z,2.72
2023-02-19T10:56:31.469Z,3.50
2023-02-19T10:59:18.324Z,3.40
2023-02-19T11:01:58.348Z,3.60
2023-02-19T11:04:25.984Z,4.70
2023-02-19T11:06:52.458Z,4.43
2023-02-19T11:09:29.350Z,6.95
2023-02-19T11:11:57.091Z,2.65
2023-02-19T11:14:24.571Z,2.90
2023-02-19T11:16:52.070Z,2.15
2023-02-19T11:19:36.917Z,4.18
2023-02-19T11:22:18.862Z,2.88
2023-02-19T11:24:48.405Z,2.53
2023-02-19T11:27:24.539Z,3.78
2023-02-19T11:29:51.277Z,3.72
2023-02-19T11:32:20.602Z,4.25
2023-02-19T11:34:47.466Z,3.63
2023-02-19T11:37:15.017Z,5.05
2023-02-19T11:39:43.171Z,4.63
2023-02-19T11:42:15.568Z,5.03
2023-02-19T11:44:44.850Z,4.47
2023-02-19T11:47:40.376Z,4.65
2023-02-19T11:50:27.192Z,5.67
2023-02-19T11:52:59.637Z,4.70
2023-02-19T11:55:51.346Z,8.00
2023-02-19T11:58:38.738Z,5.60
2023-02-19T12:01:15.622Z,3.83
2023-02-19T12:03:55.600Z,2.95
2023-02-19T12:06:30.988Z,12.13
2023-02-19T12:09:09.415Z,2.58
2023-02-19T12:11:55.517Z,2.65
2023-02-19T12:14:47.780Z,2.83
2023-02-19T12:17:32.644Z,2.20
2023-02-19T12:20:08.107Z,3.22
2023-02-19T12:22:40.930Z,2.13
2023-02-19T12:25:07.332Z,1.95
2023-02-19T12:27:33.624Z,2.70
2023-02-19T12:30:11.900Z,2.88
2023-02-19T12:32:41.050Z,3.53
2023-02-19T12:35:26.422Z,1.95
2023-02-19T12:38:06.511Z,3.20
2023-02-19T12:40:41.873Z,1.85
2023-02-19T12:43:08.108Z,2.15
2023-02-19T12:46:00.695Z,3.15
2023-02-19T12:48:44.581Z,1.40
2023-02-19T12:51:13.729Z,1.92
2023-02-19T12:53:46.865Z,1.27
2023-02-19T12:56:22.469Z,2.08
2023-02-19T12:58:50.591Z,3.67
2023-02-19T13:01:23.358Z,2.97
2023-02-19T13:04:13.558Z,2.88
2023-02-19T13:06:43.097Z,4.35
2023-02-19T13:09:18.631Z,5.53
2023-02-19T13:16:38.718Z,3.35
2023-02-19T13:19:05.179Z,2.30
2023-02-19T13:21:51.422Z,4.00
2023-02-19T13:24:26.314Z,3.72
2023-02-19T13:27:11.463Z,3.50
2023-02-19T13:29:40.835Z,2.28
2023-02-19T13:32:18.512Z,2.42
2023-02-19T13:34:44.784Z,1.75
2023-02-19T13:37:11.616Z,2.20
2023-02-19T13:39:45.468Z,3.90
2023-02-19T13:42:19.353Z,8.57
2023-02-19T13:44:47.774Z,2.75
2023-02-19T13:47:32.890Z,4.57
2023-02-19T13:50:05.228Z,2.97
2023-02-19T13:52:33.790Z,5.68
2023-02-19T13:55:18.943Z,1.90
2023-02-19T13:57:46.956Z,3.13
2023-02-19T14:00:32.339Z,2.42
2023-02-19T14:03:17.616Z,3.50
2023-02-19T14:06:00.947Z,3.58
2023-02-19T14:08:46.835Z,2.33
2023-02-19T14:11:14.395Z,2.65
2023-02-19T14:13:50.154Z,1.52
2023-02-19T14:16:33.279Z,1.42
2023-02-19T14:18:59.703Z,2.33
2023-02-19T14:21:34.386Z,1.15
2023-02-19T14:24:01.741Z,1.30
2023-02-19T14:26:32.117Z,0.82
2023-02-19T14:29:00.293Z,1.15
2023-02-19T14:31:30.932Z,0.75
2023-02-19T14:34:00.249Z,0.70
2023-02-19T14:36:29.680Z,0.75
2023-02-19T14:39:10.194Z,0.85
2023-02-19T14:41:38.695Z,0.70
2023-02-19T14:44:07.237Z,0.60
2023-02-19T14:46:45.172Z,0.55
2023-02-19T14:49:17.696Z,0.70
2023-02-19T14:51:47.403Z,1.52
2023-02-19T14:54:18.935Z,0.60
2023-02-19T14:56:47.641Z,0.73
2023-02-19T14:59:14.222Z,0.80
2023-02-19T15:01:40.552Z,1.48
2023-02-19T15:04:06.867Z,1.30
2023-02-19T15:06:34.829Z,2.10
2023-02-19T15:09:05.807Z,1.02
2023-02-19T15:11:33.225Z,1.38
2023-02-19T15:14:01.942Z,1.20
2023-02-19T15:16:29.301Z,0.80
2023-02-19T15:18:57.343Z,0.52
2023-02-19T15:21:26.650Z,2.25
2023-02-19T15:23:54.842Z,1.33
2023-02-19T15:26:22.801Z,1.45
2023-02-19T15:28:56.614Z,0.82
2023-02-19T15:31:22.988Z,1.27
2023-02-19T15:33:50.514Z,1.20
2023-02-19T15:36:19.352Z,1.35
2023-02-19T15:38:45.733Z,0.93
2023-02-19T15:41:19.725Z,1.17
2023-02-19T15:43:50.718Z,2.08
2023-02-19T15:46:21.550Z,2.58
2023-02-19T15:48:50.340Z,3.10
2023-02-19T15:51:22.014Z,1.80
2023-02-19T15:53:50.141Z,2.72
2023-02-19T15:56:16.437Z,1.30
2023-02-19T15:58:45.567Z,1.50
2023-02-19T16:01:28.407Z,1.55
2023-02-19T16:03:55.422Z,2.88
2023-02-19T16:06:23.081Z,3.60
2023-02-19T16:08:52.588Z,1.77
2023-02-19T16:11:21.912Z,1.50
2023-02-19T16:13:48.382Z,2.38
2023-02-19T16:16:24.018Z,9.63
2023-02-19T16:18:51.363Z,21.13
2023-02-19T16:21:20.266Z,31.08
2023-02-19T16:23:47.450Z,8.35
2023-02-19T16:26:14.013Z,31.15
2023-02-19T16:28:41.363Z,47.97
2023-02-19T16:31:08.810Z,67.88
2023-02-19T16:33:36.116Z,18.95
2023-02-19T16:36:17.751Z,36.08
2023-02-19T16:39:03.066Z,31.05
2023-02-19T16:41:29.601Z,13.23
2023-02-19T16:43:55.880Z,6.55
2023-02-19T16:46:22.171Z,10.55
2023-02-19T16:48:48.849Z,5.10
2023-02-19T16:51:23.553Z,10.05
2023-02-19T16:53:49.841Z,5.97
2023-02-19T16:56:18.568Z,4.82
2023-02-19T16:58:44.881Z,3.13
2023-02-19T17:01:11.654Z,5.22
2023-02-19T17:03:38.864Z,4.25
2023-02-19T17:06:05.424Z,5.57
2023-02-19T17:08:37.010Z,3.85
2023-02-19T17:11:04.885Z,4.43
2023-02-19T17:13:31.693Z,4.47
2023-02-19T17:15:58.407Z,3.70
2023-02-19T17:18:24.733Z,4.07
2023-02-19T17:21:14.381Z,5.13
2023-02-19T17:23:40.793Z,2.90
2023-02-19T17:26:07.169Z,4.22
2023-02-19T17:28:33.580Z,3.08
2023-02-19T17:31:00.008Z,3.50
2023-02-19T17:33:26.395Z,3.30
2023-02-19T17:35:52.758Z,4.80
2023-02-19T17:38:19.139Z,8.15
2023-02-19T17:40:45.739Z,3.55
2023-02-19T17:43:12.160Z,4.97
2023-02-19T17:45:38.528Z,4.28
2023-02-19T17:48:05.030Z,2.65
2023-02-19T17:50:31.940Z,3.92
2023-02-19T17:52:58.719Z,2.95
2023-02-19T17:55:25.278Z,3.92
2023-02-19T17:57:51.872Z,2.42
2023-02-19T18:00:28.482Z,4.18
2023-02-19T18:02:55.155Z,3.65
2023-02-19T18:05:21.707Z,5.07
2023-02-19T18:07:48.714Z,2.30
2023-02-19T18:10:16.334Z,3.42
2023-02-19T18:12:42.910Z,2.97
2023-02-19T18:15:11.185Z,3.40
2023-02-19T18:17:37.557Z,3.47
2023-02-19T18:20:04.685Z,3.10
2023-02-19T18:22:32.169Z,3.40
2023-02-19T18:24:58.636Z,1.90
2023-02-19T18:27:25.282Z,4.05
2023-02-19T18:29:52.159Z,6.32
2023-02-19T18:32:19.552Z,3.03
2023-02-19T18:34:50.100Z,4.32
2023-02-19T18:37:16.701Z,1.85
2023-02-19T18:39:44.270Z,5.63
2023-02-19T18:42:11.176Z,5.28
2023-02-19T18:44:37.674Z,2.83
2023-02-19T18:47:04.100Z,1.95
2023-02-19T18:49:32.272Z,1.50
2023-02-19T18:52:02.045Z,1.60
2023-02-19T18:54:29.176Z,1.50
2023-02-19T18:56:55.580Z,1.88
2023-02-19T18:59:21.913Z,1.80
2023-02-19T19:01:48.504Z,1.40
2023-02-19T19:04:14.906Z,2.85
2023-02-19T19:06:41.276Z,2.38
2023-02-19T19:09:07.634Z,2.00
2023-02-19T19:11:34.212Z,3.30
2023-02-19T19:14:00.509Z,1.95
2023-02-19T19:16:27.572Z,3.25
2023-02-19T19:18:54.392Z,2.38
2023-02-19T19:21:20.737Z,2.33
2023-02-19T19:23:49.685Z,3.47
2023-02-19T19:26:15.957Z,2.60
2023-02-19T19:28:44.505Z,1.70
2023-02-19T19:31:12.232Z,4.45
2023-02-19T19:33:38.827Z,2.08
2023-02-19T19:36:05.636Z,1.70
2023-02-19T19:38:32.219Z,2.10
2023-02-19T19:40:58.538Z,4.35
2023-02-19T19:43:31.916Z,3.08
2023-02-19T19:45:59.377Z,3.92
2023-02-19T19:48:27.641Z,2.85
2023-02-19T19:50:54.328Z,2.88
2023-02-19T19:53:20.693Z,3.70
2023-02-19T19:55:47.050Z,5.18
2023-02-19T19:58:13.380Z,4.53
2023-02-19T20:00:39.843Z,3.83
2023-02-19T20:03:06.981Z,3.20
2023-02-19T20:05:33.427Z,3.85
2023-02-19T20:07:59.770Z,3.42
2023-02-19T20:10:26.441Z,2.78
2023-02-19T20:12:52.825Z,3.75
2023-02-19T20:15:19.932Z,3.65
2023-02-19T20:17:46.223Z,2.33
2023-02-19T20:20:12.742Z,2.15
2023-02-19T20:22:39.367Z,4.50
2023-02-19T20:25:05.947Z,5.85
2023-02-19T20:27:32.261Z,6.47
2023-02-19T20:29:58.733Z,3.58
2023-02-19T20:32:25.067Z,3.45
2023-02-19T20:34:51.610Z,5.00
2023-02-19T20:37:17.986Z,3.13
2023-02-19T20:39:44.306Z,4.25
2023-02-19T20:42:10.680Z,3.53
2023-02-19T20:44:36.992Z,5.72
2023-02-19T20:47:03.329Z,5.00
2023-02-19T20:49:30.880Z,7.68
2023-02-19T20:51:58.632Z,4.60
2023-02-19T20:54:26.151Z,7.70
2023-02-19T20:56:53.570Z,6.63
2023-02-19T20:59:21.113Z,6.00
2023-02-19T21:01:47.473Z,6.38
2023-02-19T21:04:14.073Z,7.88
2023-02-19T21:06:40.346Z,7.32
2023-02-19T21:09:07.179Z,8.10
2023-02-19T21:11:33.585Z,8.63
2023-02-19T21:14:00.074Z,7.20
2023-02-19T21:16:27.539Z,7.25
2023-02-19T21:18:54.171Z,8.70
2023-02-19T21:21:22.064Z,8.23
2023-02-19T21:23:48.393Z,7.10
2023-02-19T21:26:14.765Z,8.18
2023-02-19T21:28:41.082Z,7.57
2023-02-19T21:31:07.569Z,8.80
2023-02-19T21:33:33.980Z,4.93
2023-02-19T21:36:02.127Z,6.18
2023-02-19T21:38:28.643Z,5.80
2023-02-19T21:40:54.948Z,4.10
2023-02-19T21:43:21.329Z,5.57
2023-02-19T21:45:47.784Z,6.20
2023-02-19T21:48:14.248Z,7.60
2023-02-19T21:50:40.601Z,5.25
2023-02-19T21:53:06.883Z,6.22
2023-02-19T21:55:33.305Z,8.38
2023-02-19T21:57:59.628Z,8.82
2023-02-19T22:00:25.969Z,5.03
2023-02-19T22:02:52.378Z,4.70
2023-02-19T22:05:18.728Z,15.60
2023-02-19T22:07:45.087Z,5.95
2023-02-19T22:10:11.485Z,6.25
2023-02-19T22:12:37.792Z,6.65
2023-02-19T22:15:04.296Z,8.57
2023-02-19T22:17:30.582Z,5.85
2023-02-19T22:19:57.123Z,5.28
2023-02-19T22:22:23.662Z,4.20
2023-02-19T22:24:49.997Z,6.68
2023-02-19T22:27:16.421Z,5.38
2023-02-19T22:29:42.724Z,10.60
2023-02-19T22:32:09.185Z,7.45
2023-02-19T22:34:40.224Z,8.73
2023-02-19T22:37:06.576Z,6.25
2023-02-19T22:39:34.446Z,7.70
2023-02-19T22:42:00.733Z,10.20
2023-02-19T22:44:27.168Z,7.35
2023-02-19T22:46:54.611Z,5.88
2023-02-19T22:49:21.354Z,10.25
2023-02-19T22:51:52.096Z,5.72
2023-02-19T22:54:18.436Z,5.70
2023-02-19T22:56:44.872Z,5.57
2023-02-19T22:59:11.284Z,8.63
2023-02-19T23:01:37.614Z,8.80
2023-02-19T23:04:03.974Z,9.98
2023-02-19T23:06:32.149Z,9.65
2023-02-19T23:09:02.128Z,9.13
2023-02-19T23:11:29.929Z,9.05
2023-02-19T23:13:56.910Z,12.18
2023-02-19T23:16:23.593Z,8.88
2023-02-19T23:18:49.948Z,10.05
2023-02-19T23:21:16.754Z,9.38
2023-02-19T23:23:43.485Z,8.85
2023-02-19T23:26:10.236Z,10.25
2023-02-19T23:28:36.659Z,11.35
2023-02-19T23:31:03.495Z,7.68
2023-02-19T23:33:29.852Z,10.85
2023-02-19T23:35:56.139Z,11.38
2023-02-19T23:38:22.529Z,12.55
2023-02-19T23:40:48.848Z,10.73
2023-02-19T23:43:15.150Z,12.25
2023-02-19T23:45:41.462Z,10.60
2023-02-19T23:48:07.810Z,16.50
2023-02-19T23:50:34.056Z,13.88
2023-02-19T23:53:00.372Z,16.45
2023-02-19T23:55:26.716Z,13.90
2023-02-19T23:57:53.521Z,15.75
